TimeGMT,TemperatureF,Dew PointF,Humidity,Sea Level PressureIn,VisibilityMPH,Wind Direction,Wind SpeedMPH,Gust SpeedMPH,PrecipitationIn,Events,Conditions,WindDirDegrees,DateUTC
12:00 AM,36,31,77,29.34,16,East,13.4,,,Rain,Light Rain,90,2013-01-21 00:00:00
12:00 AM,35.6,32.0,87,29.30,6.2,East,12.7,-,N/A,Rain,Light Rain,90,2013-01-21 00:00:00
12:30 AM,35.6,32.0,87,29.30,6.2,ESE,9.2,-,N/A,,Mostly Cloudy,110,2013-01-21 00:30:00
1:00 AM,35.6,32.0,87,29.44,6.2,East,6.9,-,N/A,,Mostly Cloudy,90,2013-01-21 01:00:00
1:30 AM,35.6,32.0,87,29.30,6.2,East,9.2,-,N/A,Rain,Light Rain,100,2013-01-21 01:30:00
2:00 AM,35.6,32.0,87,29.30,6.2,ESE,8.1,-,N/A,,Mostly Cloudy,110,2013-01-21 02:00:00
2:30 AM,35.6,32.0,87,29.30,6.2,East,9.2,-,N/A,,Mostly Cloudy,100,2013-01-21 02:30:00
3:00 AM,33.8,32.0,93,29.30,6.2,NE,5.8,-,N/A,,Mostly Cloudy,50,2013-01-21 03:00:00
3:30 AM,33.8,32.0,93,29.30,6.2,NNE,5.8,-,N/A,,Mostly Cloudy,20,2013-01-21 03:30:00
4:00 AM,33.8,33.8,100,29.33,6.2,NNW,5.8,-,N/A,Rain-Snow,Light Rain,330,2013-01-21 04:00:00
4:30 AM,33.8,33.8,100,29.33,6.2,North,3.5,-,N/A,Rain-Snow,Light Rain,350,2013-01-21 04:30:00
5:00 AM,33.8,33.8,100,29.33,6.2,NNW,4.6,-,N/A,Rain-Snow,Light Rain,340,2013-01-21 05:00:00
5:30 AM,33.8,33.8,100,29.33,6.2,NNW,2.3,-,N/A,Rain-Snow,Light Rain,340,2013-01-21 05:30:00
6:00 AM,33,33,100,29.37,4,NNW,2.2,,,Snow,Light Snow,330,2013-01-21 06:00:00
6:00 AM,33.8,33.8,100,29.33,4.3,NNW,2.3,-,N/A,Rain-Snow,Light Rain,330,2013-01-21 06:00:00
6:30 AM,33.8,32.0,93,29.33,3.7,WNW,4.6,-,N/A,Snow,Light Snow,300,2013-01-21 06:30:00
7:00 AM,32.0,32.0,100,29.36,1.9,WNW,4.6,-,N/A,Rain-Snow,Light Rain,300,2013-01-21 07:00:00
7:30 AM,32.0,32.0,100,29.36,0.9,WNW,3.5,-,N/A,Snow,Light Snow,300,2013-01-21 07:30:00
8:00 AM,32.0,32.0,100,29.36,1.1,WNW,3.5,-,N/A,Snow,Light Snow,300,2013-01-21 08:00:00
8:30 AM,32.0,32.0,100,29.39,1.0,WNW,6.9,-,N/A,Snow,Light Snow,300,2013-01-21 08:30:00
9:00 AM,32.0,32.0,100,29.36,1.9,West,2.3,-,N/A,Snow,Light Snow,280,2013-01-21 09:00:00
9:30 AM,32.0,32.0,100,29.39,1.0,North,2.3,-,N/A,Snow,Light Snow,350,2013-01-21 09:30:00
10:00 AM,32.0,32.0,100,29.39,0.7,West,1.2,-,N/A,Snow,Light Snow,270,2013-01-21 10:00:00
10:30 AM,32.0,32.0,100,29.39,3.7,WNW,1.2,-,N/A,,Mostly Cloudy,300,2013-01-21 10:30:00
11:00 AM,33.8,33.8,100,29.36,3.7,West,1.2,-,N/A,,Scattered Clouds,270,2013-01-21 11:00:00
11:30 AM,33.8,33.8,100,29.36,0.2,SSW,3.5,-,N/A,Fog,Fog,200,2013-01-21 11:30:00
12:00 PM,35,35,97,29.40,5,WSW,6.7,,,Fog,Light Fog,250,2013-01-21 12:00:00
12:00 PM,33.8,33.8,100,29.36,5.0,WSW,5.8,-,N/A,,Mostly Cloudy,250,2013-01-21 12:00:00
12:30 PM,33.8,33.8,100,29.36,6.2,SW,8.1,-,N/A,,Mostly Cloudy,230,2013-01-21 12:30:00
1:00 PM,33.8,33.8,100,29.36,6.2,SW,5.8,-,N/A,,Mostly Cloudy,230,2013-01-21 13:00:00
1:30 PM,35.6,35.6,100,29.36,6.2,SW,5.8,-,N/A,,Mostly Cloudy,230,2013-01-21 13:30:00
2:00 PM,37.4,35.6,93,29.33,6.2,SW,8.1,-,N/A,,Partly Cloudy,220,2013-01-21 14:00:00
2:30 PM,39.2,35.6,87,29.33,6.2,WSW,8.1,-,N/A,,Partly Cloudy,250,2013-01-21 14:30:00
3:00 PM,39.2,35.6,87,29.33,6.2,WSW,6.9,-,N/A,,Partly Cloudy,250,2013-01-21 15:00:00
3:30 PM,39.2,33.8,81,29.33,6.2,SW,4.6,-,N/A,,Partly Cloudy,230,2013-01-21 15:30:00
4:00 PM,39.2,33.8,81,29.30,6.2,West,3.5,-,N/A,,Partly Cloudy,280,2013-01-21 16:00:00
4:30 PM,37.4,33.8,87,29.30,6.2,NW,3.5,-,N/A,,Partly Cloudy,320,2013-01-21 16:30:00
5:00 PM,35.6,32.0,87,29.33,6.2,WSW,2.3,-,N/A,,Partly Cloudy,250,2013-01-21 17:00:00
5:30 PM,35.6,32.0,87,29.30,6.2,West,2.3,-,N/A,,Partly Cloudy,270,2013-01-21 17:30:00
6:00 PM,35,32,84,29.34,19,North,2.2,,,,Partly Cloudy,350,2013-01-21 18:00:00
6:00 PM,35.6,32.0,87,29.30,6.2,North,2.3,-,N/A,,Partly Cloudy,350,2013-01-21 18:00:00
6:30 PM,33.8,32.0,93,29.30,6.2,NNE,5.8,-,N/A,,Partly Cloudy,30,2013-01-21 18:30:00
7:00 PM,33.8,33.8,100,29.30,6.2,NE,5.8,-,N/A,,Scattered Clouds,40,2013-01-21 19:00:00
7:30 PM,33.8,33.8,100,29.30,5.0,SE,3.5,-,N/A,,Mostly Cloudy,130,2013-01-21 19:30:00
8:00 PM,33.8,32.0,93,29.33,6.2,Calm,Calm,-,N/A,,Mostly Cloudy,0,2013-01-21 20:00:00
8:30 PM,33.8,32.0,93,29.33,4.3,NNE,2.3,-,N/A,,Partly Cloudy,20,2013-01-21 20:30:00
9:00 PM,32.0,32.0,100,29.33,2.5,NW,5.8,-,N/A,,Partly Cloudy,320,2013-01-21 21:00:00
9:30 PM,32.0,32.0,100,29.33,0.2,NNW,9.2,-,N/A,Fog,Light Freezing Fog,330,2013-01-21 21:30:00
10:00 PM,32.0,32.0,100,29.33,6.2,NNW,5.8,-,N/A,,Mostly Cloudy,330,2013-01-21 22:00:00
10:30 PM,32.0,32.0,100,29.33,6.2,NW,5.8,-,N/A,,Mostly Cloudy,320,2013-01-21 22:30:00
11:00 PM,32.0,32.0,100,29.33,3.7,NW,6.9,-,N/A,,Scattered Clouds,310,2013-01-21 23:00:00
11:30 PM,32.0,32.0,100,29.33,6.2,NW,8.1,-,N/A,,Mostly Cloudy,310,2013-01-21 23:30:00